sensor_id;sensor_type;location;lat;lon;timestamp;P1;durP1;ratioP1;P2;durP2;ratioP2
52380;SDS011;38310;52.796;6.942;2023-07-13T00:02:07;10.23;;;3.63;;
52380;SDS011;38310;52.796;6.942;2023-07-13T00:04:33;11.75;;;3.25;;
52380;SDS011;38310;52.796;6.942;2023-07-13T00:06:59;10.52;;;3.10;;
52380;SDS011;38310;52.796;6.942;2023-07-13T00:09:24;8.13;;;3.40;;
52380;SDS011;38310;52.796;6.942;2023-07-13T00:11:51;10.98;;;3.30;;
52380;SDS011;38310;52.796;6.942;2023-07-13T00:14:20;9.23;;;2.83;;
52380;SDS011;38310;52.796;6.942;2023-07-13T00:16:46;10.25;;;3.42;;
52380;SDS011;38310;52.796;6.942;2023-07-13T00:19:12;10.73;;;3.17;;
52380;SDS011;38310;52.796;6.942;2023-07-13T00:21:39;10.40;;;3.20;;
52380;SDS011;38310;52.796;6.942;2023-07-13T00:24:06;8.77;;;3.20;;
52380;SDS011;38310;52.796;6.942;2023-07-13T00:26:33;7.88;;;3.58;;
52380;SDS011;38310;52.796;6.942;2023-07-13T00:28:59;6.82;;;2.90;;
52380;SDS011;38310;52.796;6.942;2023-07-13T00:31:25;9.70;;;3.00;;
52380;SDS011;38310;52.796;6.942;2023-07-13T00:33:51;9.95;;;3.13;;
52380;SDS011;38310;52.796;6.942;2023-07-13T00:36:17;10.23;;;3.38;;
52380;SDS011;38310;52.796;6.942;2023-07-13T00:38:43;10.63;;;3.58;;
52380;SDS011;38310;52.796;6.942;2023-07-13T00:41:09;12.55;;;3.13;;
52380;SDS011;38310;52.796;6.942;2023-07-13T00:43:35;7.18;;;3.65;;
52380;SDS011;38310;52.796;6.942;2023-07-13T00:46:09;9.75;;;3.65;;
52380;SDS011;38310;52.796;6.942;2023-07-13T00:48:41;10.05;;;3.70;;
52380;SDS011;38310;52.796;6.942;2023-07-13T00:51:08;8.63;;;3.30;;
52380;SDS011;38310;52.796;6.942;2023-07-13T00:53:36;8.82;;;3.30;;
52380;SDS011;38310;52.796;6.942;2023-07-13T00:56:02;9.35;;;3.30;;
52380;SDS011;38310;52.796;6.942;2023-07-13T00:58:28;10.18;;;3.10;;
52380;SDS011;38310;52.796;6.942;2023-07-13T01:00:55;11.68;;;3.90;;
52380;SDS011;38310;52.796;6.942;2023-07-13T01:03:20;9.38;;;3.05;;
52380;SDS011;38310;52.796;6.942;2023-07-13T01:05:47;11.75;;;3.50;;
52380;SDS011;38310;52.796;6.942;2023-07-13T01:08:14;8.38;;;3.10;;
52380;SDS011;38310;52.796;6.942;2023-07-13T01:10:41;9.40;;;3.60;;
52380;SDS011;38310;52.796;6.942;2023-07-13T01:13:15;7.00;;;2.83;;
52380;SDS011;38310;52.796;6.942;2023-07-13T01:15:42;10.23;;;4.15;;
52380;SDS011;38310;52.796;6.942;2023-07-13T01:18:11;7.32;;;3.00;;
52380;SDS011;38310;52.796;6.942;2023-07-13T01:20:40;11.18;;;3.30;;
52380;SDS011;38310;52.796;6.942;2023-07-13T01:23:07;10.07;;;3.53;;
52380;SDS011;38310;52.796;6.942;2023-07-13T01:25:35;9.90;;;4.15;;
52380;SDS011;38310;52.796;6.942;2023-07-13T01:28:03;9.65;;;3.50;;
52380;SDS011;38310;52.796;6.942;2023-07-13T01:30:30;7.53;;;3.45;;
52380;SDS011;38310;52.796;6.942;2023-07-13T01:32:57;13.90;;;4.00;;
52380;SDS011;38310;52.796;6.942;2023-07-13T01:35:23;13.18;;;4.25;;
52380;SDS011;38310;52.796;6.942;2023-07-13T01:37:50;12.05;;;4.25;;
52380;SDS011;38310;52.796;6.942;2023-07-13T01:40:16;9.13;;;4.30;;
52380;SDS011;38310;52.796;6.942;2023-07-13T01:42:42;8.10;;;4.20;;
52380;SDS011;38310;52.796;6.942;2023-07-13T01:45:08;8.02;;;3.70;;
52380;SDS011;38310;52.796;6.942;2023-07-13T01:47:34;13.68;;;4.13;;
52380;SDS011;38310;52.796;6.942;2023-07-13T01:50:00;10.77;;;3.88;;
52380;SDS011;38310;52.796;6.942;2023-07-13T01:52:25;8.57;;;3.63;;
52380;SDS011;38310;52.796;6.942;2023-07-13T01:54:51;11.88;;;4.03;;
52380;SDS011;38310;52.796;6.942;2023-07-13T01:57:17;7.82;;;3.13;;
52380;SDS011;38310;52.796;6.942;2023-07-13T01:59:43;13.98;;;4.20;;
52380;SDS011;38310;52.796;6.942;2023-07-13T02:02:08;11.60;;;4.25;;
52380;SDS011;38310;52.796;6.942;2023-07-13T02:04:34;12.15;;;3.83;;
52380;SDS011;38310;52.796;6.942;2023-07-13T02:07:00;8.15;;;3.80;;
52380;SDS011;38310;52.796;6.942;2023-07-13T02:09:25;9.70;;;3.83;;
52380;SDS011;38310;52.796;6.942;2023-07-13T02:11:52;16.40;;;4.70;;
52380;SDS011;38310;52.796;6.942;2023-07-13T02:14:17;9.50;;;3.80;;
52380;SDS011;38310;52.796;6.942;2023-07-13T02:16:43;11.43;;;3.97;;
52380;SDS011;38310;52.796;6.942;2023-07-13T02:19:09;10.90;;;4.18;;
52380;SDS011;38310;52.796;6.942;2023-07-13T02:21:34;13.48;;;3.95;;
52380;SDS011;38310;52.796;6.942;2023-07-13T02:24:00;10.05;;;4.00;;
52380;SDS011;38310;52.796;6.942;2023-07-13T02:26:26;9.55;;;4.05;;
52380;SDS011;38310;52.796;6.942;2023-07-13T02:28:52;9.52;;;3.92;;
52380;SDS011;38310;52.796;6.942;2023-07-13T02:31:18;11.18;;;3.90;;
52380;SDS011;38310;52.796;6.942;2023-07-13T02:33:44;11.68;;;4.25;;
52380;SDS011;38310;52.796;6.942;2023-07-13T02:36:10;13.02;;;3.80;;
52380;SDS011;38310;52.796;6.942;2023-07-13T02:38:36;18.42;;;4.00;;
52380;SDS011;38310;52.796;6.942;2023-07-13T02:41:06;12.57;;;4.60;;
52380;SDS011;38310;52.796;6.942;2023-07-13T02:43:33;11.82;;;3.92;;
52380;SDS011;38310;52.796;6.942;2023-07-13T02:46:00;16.17;;;4.15;;
52380;SDS011;38310;52.796;6.942;2023-07-13T02:48:32;9.45;;;4.10;;
52380;SDS011;38310;52.796;6.942;2023-07-13T02:51:01;13.32;;;4.65;;
52380;SDS011;38310;52.796;6.942;2023-07-13T02:53:27;10.60;;;4.45;;
52380;SDS011;38310;52.796;6.942;2023-07-13T02:55:53;12.30;;;4.78;;
52380;SDS011;38310;52.796;6.942;2023-07-13T02:58:18;13.20;;;4.57;;
52380;SDS011;38310;52.796;6.942;2023-07-13T03:00:45;10.82;;;5.30;;
52380;SDS011;38310;52.796;6.942;2023-07-13T03:03:14;9.57;;;4.40;;
52380;SDS011;38310;52.796;6.942;2023-07-13T03:05:41;12.30;;;4.32;;
52380;SDS011;38310;52.796;6.942;2023-07-13T03:08:11;12.13;;;4.05;;
52380;SDS011;38310;52.796;6.942;2023-07-13T03:10:37;9.70;;;4.13;;
52380;SDS011;38310;52.796;6.942;2023-07-13T03:13:04;10.27;;;4.05;;
52380;SDS011;38310;52.796;6.942;2023-07-13T03:15:30;13.93;;;4.25;;
52380;SDS011;38310;52.796;6.942;2023-07-13T03:17:56;12.95;;;3.63;;
52380;SDS011;38310;52.796;6.942;2023-07-13T03:20:22;24.13;;;4.00;;
52380;SDS011;38310;52.796;6.942;2023-07-13T03:22:47;11.30;;;3.92;;
52380;SDS011;38310;52.796;6.942;2023-07-13T03:25:13;11.90;;;3.92;;
52380;SDS011;38310;52.796;6.942;2023-07-13T03:27:39;12.98;;;4.50;;
52380;SDS011;38310;52.796;6.942;2023-07-13T03:30:05;12.57;;;3.97;;
52380;SDS011;38310;52.796;6.942;2023-07-13T03:32:32;12.48;;;4.45;;
52380;SDS011;38310;52.796;6.942;2023-07-13T03:34:58;7.80;;;4.13;;
52380;SDS011;38310;52.796;6.942;2023-07-13T03:37:23;12.45;;;4.32;;
52380;SDS011;38310;52.796;6.942;2023-07-13T03:39:49;9.52;;;4.20;;
52380;SDS011;38310;52.796;6.942;2023-07-13T03:42:15;8.98;;;3.92;;
52380;SDS011;38310;52.796;6.942;2023-07-13T03:44:41;11.07;;;4.63;;
52380;SDS011;38310;52.796;6.942;2023-07-13T03:47:11;9.70;;;3.70;;
52380;SDS011;38310;52.796;6.942;2023-07-13T03:49:37;6.82;;;4.20;;
52380;SDS011;38310;52.796;6.942;2023-07-13T03:52:02;13.77;;;4.13;;
52380;SDS011;38310;52.796;6.942;2023-07-13T03:54:28;10.63;;;4.22;;
52380;SDS011;38310;52.796;6.942;2023-07-13T03:56:54;8.38;;;4.13;;
52380;SDS011;38310;52.796;6.942;2023-07-13T03:59:20;9.10;;;3.95;;
52380;SDS011;38310;52.796;6.942;2023-07-13T04:01:46;13.35;;;5.00;;
52380;SDS011;38310;52.796;6.942;2023-07-13T04:04:12;12.30;;;4.07;;
52380;SDS011;38310;52.796;6.942;2023-07-13T04:06:38;10.50;;;4.20;;
52380;SDS011;38310;52.796;6.942;2023-07-13T04:09:04;12.18;;;4.22;;
52380;SDS011;38310;52.796;6.942;2023-07-13T04:11:34;10.27;;;3.97;;
52380;SDS011;38310;52.796;6.942;2023-07-13T04:14:01;8.88;;;4.82;;
52380;SDS011;38310;52.796;6.942;2023-07-13T04:16:27;10.15;;;4.63;;
52380;SDS011;38310;52.796;6.942;2023-07-13T04:18:54;9.02;;;4.82;;
52380;SDS011;38310;52.796;6.942;2023-07-13T04:21:24;9.00;;;4.78;;
52380;SDS011;38310;52.796;6.942;2023-07-13T04:23:51;8.38;;;4.45;;
52380;SDS011;38310;52.796;6.942;2023-07-13T04:26:17;9.43;;;4.45;;
52380;SDS011;38310;52.796;6.942;2023-07-13T04:28:44;12.52;;;4.80;;
52380;SDS011;38310;52.796;6.942;2023-07-13T04:31:10;10.88;;;4.55;;
52380;SDS011;38310;52.796;6.942;2023-07-13T04:33:35;15.13;;;5.15;;
52380;SDS011;38310;52.796;6.942;2023-07-13T04:36:01;12.38;;;4.68;;
52380;SDS011;38310;52.796;6.942;2023-07-13T04:38:28;11.85;;;4.75;;
52380;SDS011;38310;52.796;6.942;2023-07-13T04:40:55;13.25;;;5.05;;
52380;SDS011;38310;52.796;6.942;2023-07-13T04:43:22;11.02;;;5.40;;
52380;SDS011;38310;52.796;6.942;2023-07-13T04:45:50;12.30;;;5.20;;
52380;SDS011;38310;52.796;6.942;2023-07-13T04:48:16;11.55;;;4.80;;
52380;SDS011;38310;52.796;6.942;2023-07-13T04:50:41;12.32;;;4.70;;
52380;SDS011;38310;52.796;6.942;2023-07-13T04:53:08;12.88;;;4.85;;
52380;SDS011;38310;52.796;6.942;2023-07-13T04:55:35;12.77;;;4.20;;
52380;SDS011;38310;52.796;6.942;2023-07-13T04:58:01;9.10;;;4.93;;
52380;SDS011;38310;52.796;6.942;2023-07-13T05:00:27;10.52;;;4.80;;
52380;SDS011;38310;52.796;6.942;2023-07-13T05:02:57;13.07;;;4.68;;
52380;SDS011;38310;52.796;6.942;2023-07-13T05:05:24;9.35;;;4.28;;
52380;SDS011;38310;52.796;6.942;2023-07-13T05:07:51;11.55;;;4.72;;
52380;SDS011;38310;52.796;6.942;2023-07-13T05:10:17;12.73;;;5.00;;
52380;SDS011;38310;52.796;6.942;2023-07-13T05:12:43;12.90;;;4.75;;
52380;SDS011;38310;52.796;6.942;2023-07-13T05:15:09;13.10;;;5.20;;
52380;SDS011;38310;52.796;6.942;2023-07-13T05:17:35;12.45;;;4.85;;
52380;SDS011;38310;52.796;6.942;2023-07-13T05:20:01;9.80;;;4.75;;
52380;SDS011;38310;52.796;6.942;2023-07-13T05:22:27;10.75;;;5.00;;
52380;SDS011;38310;52.796;6.942;2023-07-13T05:24:53;13.40;;;5.45;;
52380;SDS011;38310;52.796;6.942;2023-07-13T05:27:19;13.25;;;5.05;;
52380;SDS011;38310;52.796;6.942;2023-07-13T05:29:44;14.07;;;5.57;;
52380;SDS011;38310;52.796;6.942;2023-07-13T05:32:10;12.25;;;5.32;;
52380;SDS011;38310;52.796;6.942;2023-07-13T05:34:36;14.38;;;5.03;;
52380;SDS011;38310;52.796;6.942;2023-07-13T05:37:01;14.63;;;4.97;;
52380;SDS011;38310;52.796;6.942;2023-07-13T05:39:27;11.07;;;4.90;;
52380;SDS011;38310;52.796;6.942;2023-07-13T05:41:53;10.82;;;4.97;;
52380;SDS011;38310;52.796;6.942;2023-07-13T05:44:18;11.15;;;4.65;;
52380;SDS011;38310;52.796;6.942;2023-07-13T05:46:44;9.95;;;4.82;;
52380;SDS011;38310;52.796;6.942;2023-07-13T05:49:10;13.25;;;4.43;;
52380;SDS011;38310;52.796;6.942;2023-07-13T05:51:36;7.80;;;4.60;;
52380;SDS011;38310;52.796;6.942;2023-07-13T05:54:02;12.65;;;4.53;;
52380;SDS011;38310;52.796;6.942;2023-07-13T05:56:28;13.27;;;5.15;;
52380;SDS011;38310;52.796;6.942;2023-07-13T05:58:54;12.05;;;4.82;;
52380;SDS011;38310;52.796;6.942;2023-07-13T06:01:19;14.70;;;4.80;;
52380;SDS011;38310;52.796;6.942;2023-07-13T06:03:46;12.63;;;4.72;;
52380;SDS011;38310;52.796;6.942;2023-07-13T06:06:12;12.23;;;4.93;;
52380;SDS011;38310;52.796;6.942;2023-07-13T06:08:38;9.95;;;5.05;;
52380;SDS011;38310;52.796;6.942;2023-07-13T06:11:05;9.75;;;4.78;;
52380;SDS011;38310;52.796;6.942;2023-07-13T06:13:39;14.10;;;5.00;;
52380;SDS011;38310;52.796;6.942;2023-07-13T06:16:05;11.75;;;4.40;;
52380;SDS011;38310;52.796;6.942;2023-07-13T06:18:31;7.85;;;4.05;;
52380;SDS011;38310;52.796;6.942;2023-07-13T06:20:58;8.07;;;3.72;;
52380;SDS011;38310;52.796;6.942;2023-07-13T06:23:24;11.02;;;4.78;;
52380;SDS011;38310;52.796;6.942;2023-07-13T06:25:50;14.55;;;4.85;;
52380;SDS011;38310;52.796;6.942;2023-07-13T06:28:16;12.75;;;4.60;;
52380;SDS011;38310;52.796;6.942;2023-07-13T06:30:42;12.23;;;4.47;;
52380;SDS011;38310;52.796;6.942;2023-07-13T06:33:07;9.73;;;4.53;;
52380;SDS011;38310;52.796;6.942;2023-07-13T06:35:33;11.07;;;4.80;;
52380;SDS011;38310;52.796;6.942;2023-07-13T06:37:59;15.60;;;5.10;;
52380;SDS011;38310;52.796;6.942;2023-07-13T06:40:25;10.23;;;4.60;;
52380;SDS011;38310;52.796;6.942;2023-07-13T06:42:51;9.45;;;4.68;;
52380;SDS011;38310;52.796;6.942;2023-07-13T06:45:16;12.00;;;4.65;;
52380;SDS011;38310;52.796;6.942;2023-07-13T06:47:42;8.48;;;4.40;;
52380;SDS011;38310;52.796;6.942;2023-07-13T06:50:08;9.73;;;4.65;;
52380;SDS011;38310;52.796;6.942;2023-07-13T06:52:34;9.60;;;4.55;;
52380;SDS011;38310;52.796;6.942;2023-07-13T06:55:00;8.95;;;4.82;;
52380;SDS011;38310;52.796;6.942;2023-07-13T06:57:26;9.32;;;4.68;;
52380;SDS011;38310;52.796;6.942;2023-07-13T06:59:52;10.07;;;4.38;;
52380;SDS011;38310;52.796;6.942;2023-07-13T07:02:18;9.75;;;4.10;;
52380;SDS011;38310;52.796;6.942;2023-07-13T07:04:44;10.75;;;3.70;;
52380;SDS011;38310;52.796;6.942;2023-07-13T07:07:09;7.65;;;4.38;;
52380;SDS011;38310;52.796;6.942;2023-07-13T07:09:35;11.35;;;4.38;;
52380;SDS011;38310;52.796;6.942;2023-07-13T07:12:02;10.77;;;4.63;;
52380;SDS011;38310;52.796;6.942;2023-07-13T07:14:28;8.68;;;4.05;;
52380;SDS011;38310;52.796;6.942;2023-07-13T07:16:55;7.68;;;4.10;;
52380;SDS011;38310;52.796;6.942;2023-07-13T07:19:20;13.05;;;4.45;;
52380;SDS011;38310;52.796;6.942;2023-07-13T07:21:46;10.43;;;4.35;;
52380;SDS011;38310;52.796;6.942;2023-07-13T07:24:12;13.35;;;4.32;;
52380;SDS011;38310;52.796;6.942;2023-07-13T07:26:38;10.60;;;3.95;;
52380;SDS011;38310;52.796;6.942;2023-07-13T07:29:03;11.38;;;3.95;;
52380;SDS011;38310;52.796;6.942;2023-07-13T07:31:29;8.88;;;4.47;;
52380;SDS011;38310;52.796;6.942;2023-07-13T07:33:55;10.25;;;4.10;;
52380;SDS011;38310;52.796;6.942;2023-07-13T07:36:20;13.93;;;5.05;;
52380;SDS011;38310;52.796;6.942;2023-07-13T07:38:46;8.98;;;4.32;;
52380;SDS011;38310;52.796;6.942;2023-07-13T07:41:12;10.43;;;4.57;;
52380;SDS011;38310;52.796;6.942;2023-07-13T07:43:38;12.27;;;4.70;;
52380;SDS011;38310;52.796;6.942;2023-07-13T07:46:04;11.60;;;4.38;;
52380;SDS011;38310;52.796;6.942;2023-07-13T07:48:30;7.88;;;3.83;;
52380;SDS011;38310;52.796;6.942;2023-07-13T07:50:56;8.82;;;4.25;;
52380;SDS011;38310;52.796;6.942;2023-07-13T07:53:21;8.73;;;3.80;;
52380;SDS011;38310;52.796;6.942;2023-07-13T07:55:47;12.27;;;4.88;;
52380;SDS011;38310;52.796;6.942;2023-07-13T07:58:13;12.23;;;4.80;;
52380;SDS011;38310;52.796;6.942;2023-07-13T08:00:39;9.55;;;4.70;;
52380;SDS011;38310;52.796;6.942;2023-07-13T08:03:05;9.65;;;4.85;;
52380;SDS011;38310;52.796;6.942;2023-07-13T08:05:31;11.52;;;4.32;;
52380;SDS011;38310;52.796;6.942;2023-07-13T08:07:59;11.05;;;4.97;;
52380;SDS011;38310;52.796;6.942;2023-07-13T08:10:25;14.48;;;4.68;;
52380;SDS011;38310;52.796;6.942;2023-07-13T08:12:51;12.48;;;4.95;;
52380;SDS011;38310;52.796;6.942;2023-07-13T08:15:17;11.30;;;4.70;;
52380;SDS011;38310;52.796;6.942;2023-07-13T08:17:45;8.52;;;4.55;;
52380;SDS011;38310;52.796;6.942;2023-07-13T08:20:14;8.20;;;4.07;;
52380;SDS011;38310;52.796;6.942;2023-07-13T08:22:41;10.15;;;4.57;;
52380;SDS011;38310;52.796;6.942;2023-07-13T08:25:06;9.52;;;5.10;;
52380;SDS011;38310;52.796;6.942;2023-07-13T08:27:33;10.77;;;5.18;;
52380;SDS011;38310;52.796;6.942;2023-07-13T08:29:58;12.82;;;4.90;;
52380;SDS011;38310;52.796;6.942;2023-07-13T08:32:24;9.23;;;5.10;;
52380;SDS011;38310;52.796;6.942;2023-07-13T08:34:50;14.32;;;5.43;;
52380;SDS011;38310;52.796;6.942;2023-07-13T08:37:16;9.35;;;5.05;;
52380;SDS011;38310;52.796;6.942;2023-07-13T08:39:43;11.35;;;4.82;;
52380;SDS011;38310;52.796;6.942;2023-07-13T08:44:56;10.60;;;5.45;;
52380;SDS011;38310;52.796;6.942;2023-07-13T08:47:37;11.55;;;5.35;;
52380;SDS011;38310;52.796;6.942;2023-07-13T08:50:14;8.95;;;5.05;;
52380;SDS011;38310;52.796;6.942;2023-07-13T08:52:43;12.18;;;5.30;;
52380;SDS011;38310;52.796;6.942;2023-07-13T08:55:24;9.27;;;5.28;;
52380;SDS011;38310;52.796;6.942;2023-07-13T08:58:04;13.05;;;5.25;;
52380;SDS011;38310;52.796;6.942;2023-07-13T09:00:52;13.32;;;6.32;;
52380;SDS011;38310;52.796;6.942;2023-07-13T09:03:37;8.52;;;5.40;;
52380;SDS011;38310;52.796;6.942;2023-07-13T09:06:09;9.25;;;5.15;;
52380;SDS011;38310;52.796;6.942;2023-07-13T09:17:12;12.68;;;5.70;;
52380;SDS011;38310;52.796;6.942;2023-07-13T09:19:59;11.98;;;5.43;;
52380;SDS011;38310;52.796;6.942;2023-07-13T09:22:29;12.15;;;5.22;;
52380;SDS011;38310;52.796;6.942;2023-07-13T09:25:34;13.70;;;7.05;;
52380;SDS011;38310;52.796;6.942;2023-07-13T09:27:57;11.02;;;6.40;;
52380;SDS011;38310;52.796;6.942;2023-07-13T09:30:50;8.35;;;3.75;;
52380;SDS011;38310;52.796;6.942;2023-07-13T09:33:35;10.95;;;3.42;;
52380;SDS011;38310;52.796;6.942;2023-07-13T09:36:01;7.00;;;3.03;;
52380;SDS011;38310;52.796;6.942;2023-07-13T09:38:40;7.30;;;2.60;;
52380;SDS011;38310;52.796;6.942;2023-07-13T09:41:23;4.40;;;1.85;;
52380;SDS011;38310;52.796;6.942;2023-07-13T09:46:35;3.13;;;1.85;;
52380;SDS011;38310;52.796;6.942;2023-07-13T09:49:01;4.38;;;2.10;;
52380;SDS011;38310;52.796;6.942;2023-07-13T09:51:26;5.50;;;2.53;;
52380;SDS011;38310;52.796;6.942;2023-07-13T09:53:53;4.55;;;2.28;;
52380;SDS011;38310;52.796;6.942;2023-07-13T09:56:23;3.90;;;1.90;;
52380;SDS011;38310;52.796;6.942;2023-07-13T09:58:52;3.90;;;1.93;;
52380;SDS011;38310;52.796;6.942;2023-07-13T10:01:39;2.70;;;1.75;;
52380;SDS011;38310;52.796;6.942;2023-07-13T10:04:11;3.55;;;1.75;;
52380;SDS011;38310;52.796;6.942;2023-07-13T10:06:38;3.58;;;1.70;;
52380;SDS011;38310;52.796;6.942;2023-07-13T10:09:09;3.58;;;1.60;;
52380;SDS011;38310;52.796;6.942;2023-07-13T10:11:36;3.92;;;1.70;;
52380;SDS011;38310;52.796;6.942;2023-07-13T10:14:14;2.60;;;1.27;;
52380;SDS011;38310;52.796;6.942;2023-07-13T10:16:42;5.90;;;2.00;;
52380;SDS011;38310;52.796;6.942;2023-07-13T10:19:21;3.70;;;2.03;;
52380;SDS011;38310;52.796;6.942;2023-07-13T10:21:55;2.85;;;2.10;;
52380;SDS011;38310;52.796;6.942;2023-07-13T10:24:30;3.95;;;2.13;;
52380;SDS011;38310;52.796;6.942;2023-07-13T10:27:13;4.20;;;2.10;;
52380;SDS011;38310;52.796;6.942;2023-07-13T10:29:47;2.40;;;1.60;;
52380;SDS011;38310;52.796;6.942;2023-07-13T10:32:17;3.03;;;1.80;;
52380;SDS011;38310;52.796;6.942;2023-07-13T10:34:47;3.17;;;1.88;;
52380;SDS011;38310;52.796;6.942;2023-07-13T10:37:22;2.42;;;1.50;;
52380;SDS011;38310;52.796;6.942;2023-07-13T10:39:52;2.38;;;1.45;;
52380;SDS011;38310;52.796;6.942;2023-07-13T10:42:35;2.97;;;2.30;;
52380;SDS011;38310;52.796;6.942;2023-07-13T10:45:14;4.35;;;2.25;;
52380;SDS011;38310;52.796;6.942;2023-07-13T10:47:45;4.75;;;2.35;;
52380;SDS011;38310;52.796;6.942;2023-07-13T10:50:15;5.13;;;2.60;;
52380;SDS011;38310;52.796;6.942;2023-07-13T10:52:53;7.40;;;2.85;;
52380;SDS011;38310;52.796;6.942;2023-07-13T10:58:20;6.70;;;3.50;;
52380;SDS011;38310;52.796;6.942;2023-07-13T11:01:38;5.68;;;3.42;;
52380;SDS011;38310;52.796;6.942;2023-07-13T11:03:50;6.93;;;4.20;;
52380;SDS011;38310;52.796;6.942;2023-07-13T11:06:45;6.10;;;4.00;;
52380;SDS011;38310;52.796;6.942;2023-07-13T11:11:59;8.55;;;4.28;;
52380;SDS011;38310;52.796;6.942;2023-07-13T11:15:00;10.23;;;4.72;;
52380;SDS011;38310;52.796;6.942;2023-07-13T11:25:30;8.23;;;4.72;;
52380;SDS011;38310;52.796;6.942;2023-07-13T11:30:44;6.07;;;3.67;;
52380;SDS011;38310;52.796;6.942;2023-07-13T11:36:20;10.63;;;5.25;;
52380;SDS011;38310;52.796;6.942;2023-07-13T11:41:42;6.03;;;3.13;;
52380;SDS011;38310;52.796;6.942;2023-07-13T11:44:15;3.25;;;2.22;;
52380;SDS011;38310;52.796;6.942;2023-07-13T11:46:48;2.90;;;2.07;;
52380;SDS011;38310;52.796;6.942;2023-07-13T11:49:16;4.53;;;2.58;;
52380;SDS011;38310;52.796;6.942;2023-07-13T11:51:47;3.03;;;1.90;;
52380;SDS011;38310;52.796;6.942;2023-07-13T11:54:29;3.08;;;2.00;;
52380;SDS011;38310;52.796;6.942;2023-07-13T11:57:11;3.03;;;2.08;;
52380;SDS011;38310;52.796;6.942;2023-07-13T11:59:48;3.65;;;1.80;;
52380;SDS011;38310;52.796;6.942;2023-07-13T12:02:40;2.38;;;1.63;;
52380;SDS011;38310;52.796;6.942;2023-07-13T12:05:05;4.60;;;2.10;;
52380;SDS011;38310;52.796;6.942;2023-07-13T12:07:35;3.85;;;1.70;;
52380;SDS011;38310;52.796;6.942;2023-07-13T12:12:37;5.85;;;2.80;;
52380;SDS011;38310;52.796;6.942;2023-07-13T12:15:13;7.30;;;2.90;;
52380;SDS011;38310;52.796;6.942;2023-07-13T12:17:39;3.55;;;2.38;;
52380;SDS011;38310;52.796;6.942;2023-07-13T12:20:17;8.52;;;2.42;;
52380;SDS011;38310;52.796;6.942;2023-07-13T12:23:00;5.38;;;2.13;;
52380;SDS011;38310;52.796;6.942;2023-07-13T12:25:27;6.05;;;2.72;;
52380;SDS011;38310;52.796;6.942;2023-07-13T12:27:54;7.32;;;2.60;;
52380;SDS011;38310;52.796;6.942;2023-07-13T12:30:28;4.38;;;2.55;;
52380;SDS011;38310;52.796;6.942;2023-07-13T12:33:00;6.07;;;2.90;;
52380;SDS011;38310;52.796;6.942;2023-07-13T12:35:28;5.63;;;3.13;;
52380;SDS011;38310;52.796;6.942;2023-07-13T12:37:56;9.13;;;2.85;;
52380;SDS011;38310;52.796;6.942;2023-07-13T12:40:27;5.28;;;3.05;;
52380;SDS011;38310;52.796;6.942;2023-07-13T12:42:57;7.03;;;2.73;;
52380;SDS011;38310;52.796;6.942;2023-07-13T12:45:27;11.20;;;4.13;;
52380;SDS011;38310;52.796;6.942;2023-07-13T12:47:54;5.95;;;2.83;;
52380;SDS011;38310;52.796;6.942;2023-07-13T12:50:28;5.00;;;2.70;;
52380;SDS011;38310;52.796;6.942;2023-07-13T12:52:59;6.22;;;2.90;;
52380;SDS011;38310;52.796;6.942;2023-07-13T12:55:32;9.98;;;4.53;;
52380;SDS011;38310;52.796;6.942;2023-07-13T13:01:01;7.03;;;2.92;;
52380;SDS011;38310;52.796;6.942;2023-07-13T13:03:32;9.52;;;4.32;;
52380;SDS011;38310;52.796;6.942;2023-07-13T13:06:25;9.73;;;3.42;;
52380;SDS011;38310;52.796;6.942;2023-07-13T13:08:54;5.40;;;3.15;;
52380;SDS011;38310;52.796;6.942;2023-07-13T13:11:26;5.80;;;3.67;;
52380;SDS011;38310;52.796;6.942;2023-07-13T13:13:55;6.85;;;3.63;;
52380;SDS011;38310;52.796;6.942;2023-07-13T13:16:43;5.90;;;3.40;;
52380;SDS011;38310;52.796;6.942;2023-07-13T13:19:26;8.65;;;3.40;;
52380;SDS011;38310;52.796;6.942;2023-07-13T13:21:54;6.22;;;3.00;;
52380;SDS011;38310;52.796;6.942;2023-07-13T13:24:22;4.60;;;2.80;;
52380;SDS011;38310;52.796;6.942;2023-07-13T13:26:50;5.00;;;2.50;;
52380;SDS011;38310;52.796;6.942;2023-07-13T13:29:21;6.75;;;2.45;;
52380;SDS011;38310;52.796;6.942;2023-07-13T13:31:52;6.97;;;2.03;;
52380;SDS011;38310;52.796;6.942;2023-07-13T13:34:21;4.38;;;1.90;;
52380;SDS011;38310;52.796;6.942;2023-07-13T13:36:51;3.97;;;1.88;;
52380;SDS011;38310;52.796;6.942;2023-07-13T13:41:43;3.25;;;1.20;;
52380;SDS011;38310;52.796;6.942;2023-07-13T13:44:09;3.83;;;1.55;;
52380;SDS011;38310;52.796;6.942;2023-07-13T13:46:35;4.07;;;1.60;;
52380;SDS011;38310;52.796;6.942;2023-07-13T13:49:02;4.07;;;1.33;;
52380;SDS011;38310;52.796;6.942;2023-07-13T13:51:27;4.38;;;1.20;;
52380;SDS011;38310;52.796;6.942;2023-07-13T13:53:54;2.90;;;1.02;;
52380;SDS011;38310;52.796;6.942;2023-07-13T13:56:20;3.83;;;1.10;;
52380;SDS011;38310;52.796;6.942;2023-07-13T13:58:46;3.47;;;1.30;;
52380;SDS011;38310;52.796;6.942;2023-07-13T14:01:16;4.05;;;1.50;;
52380;SDS011;38310;52.796;6.942;2023-07-13T14:03:44;2.60;;;1.13;;
52380;SDS011;38310;52.796;6.942;2023-07-13T14:06:14;2.58;;;1.30;;
52380;SDS011;38310;52.796;6.942;2023-07-13T14:08:41;2.70;;;1.20;;
52380;SDS011;38310;52.796;6.942;2023-07-13T14:11:10;4.32;;;1.20;;
52380;SDS011;38310;52.796;6.942;2023-07-13T14:13:45;3.30;;;0.95;;
52380;SDS011;38310;52.796;6.942;2023-07-13T14:16:18;3.15;;;1.00;;
52380;SDS011;38310;52.796;6.942;2023-07-13T14:18:45;2.95;;;1.08;;
52380;SDS011;38310;52.796;6.942;2023-07-13T14:21:15;3.85;;;1.10;;
52380;SDS011;38310;52.796;6.942;2023-07-13T14:23:44;4.18;;;1.40;;
52380;SDS011;38310;52.796;6.942;2023-07-13T14:26:11;2.40;;;0.90;;
52380;SDS011;38310;52.796;6.942;2023-07-13T14:28:43;2.55;;;1.00;;
52380;SDS011;38310;52.796;6.942;2023-07-13T14:31:11;4.68;;;1.00;;
52380;SDS011;38310;52.796;6.942;2023-07-13T14:33:38;5.32;;;1.80;;
52380;SDS011;38310;52.796;6.942;2023-07-13T14:38:56;2.70;;;1.15;;
52380;SDS011;38310;52.796;6.942;2023-07-13T14:41:23;3.90;;;1.00;;
52380;SDS011;38310;52.796;6.942;2023-07-13T14:43:49;2.70;;;1.33;;
52380;SDS011;38310;52.796;6.942;2023-07-13T14:46:24;4.28;;;1.20;;
52380;SDS011;38310;52.796;6.942;2023-07-13T14:48:59;3.47;;;1.10;;
52380;SDS011;38310;52.796;6.942;2023-07-13T14:51:29;2.67;;;1.05;;
52380;SDS011;38310;52.796;6.942;2023-07-13T14:53:55;1.83;;;1.10;;
52380;SDS011;38310;52.796;6.942;2023-07-13T14:56:21;2.80;;;1.05;;
52380;SDS011;38310;52.796;6.942;2023-07-13T14:58:47;5.00;;;1.20;;
52380;SDS011;38310;52.796;6.942;2023-07-13T15:01:13;2.55;;;1.27;;
52380;SDS011;38310;52.796;6.942;2023-07-13T15:03:45;4.65;;;1.35;;
52380;SDS011;38310;52.796;6.942;2023-07-13T15:06:13;2.53;;;0.95;;
52380;SDS011;38310;52.796;6.942;2023-07-13T15:08:39;2.85;;;1.20;;
52380;SDS011;38310;52.796;6.942;2023-07-13T15:11:08;2.38;;;0.90;;
52380;SDS011;38310;52.796;6.942;2023-07-13T15:13:38;4.13;;;1.38;;
52380;SDS011;38310;52.796;6.942;2023-07-13T15:16:05;2.05;;;0.93;;
52380;SDS011;38310;52.796;6.942;2023-07-13T15:18:53;2.70;;;1.20;;
52380;SDS011;38310;52.796;6.942;2023-07-13T15:21:20;3.03;;;1.20;;
52380;SDS011;38310;52.796;6.942;2023-07-13T15:23:48;5.50;;;1.23;;
52380;SDS011;38310;52.796;6.942;2023-07-13T15:26:15;5.82;;;1.33;;
52380;SDS011;38310;52.796;6.942;2023-07-13T15:28:42;2.78;;;1.35;;
52380;SDS011;38310;52.796;6.942;2023-07-13T15:31:15;5.75;;;1.38;;
52380;SDS011;38310;52.796;6.942;2023-07-13T15:33:50;5.38;;;1.50;;
52380;SDS011;38310;52.796;6.942;2023-07-13T15:36:20;3.70;;;1.40;;
52380;SDS011;38310;52.796;6.942;2023-07-13T15:38:47;3.00;;;1.35;;
52380;SDS011;38310;52.796;6.942;2023-07-13T15:41:16;3.78;;;1.40;;